createdAt,value
2023-04-28T00:01:45.318Z,5.45
2023-04-28T00:04:12.540Z,3.97
2023-04-28T00:06:41.116Z,4.40
2023-04-28T00:09:11.019Z,5.43
2023-04-28T00:11:38.593Z,3.58
2023-04-28T00:14:05.952Z,5.45
2023-04-28T00:16:32.811Z,5.88
2023-04-28T00:18:59.622Z,6.00
2023-04-28T00:21:28.955Z,3.92
2023-04-28T00:23:56.073Z,6.60
2023-04-28T00:26:22.948Z,4.10
2023-04-28T00:28:49.744Z,5.88
2023-04-28T00:31:17.020Z,6.97
2023-04-28T00:33:45.411Z,4.57
2023-04-28T00:36:13.641Z,4.22
2023-04-28T00:38:40.580Z,5.90
2023-04-28T00:41:11.055Z,3.97
2023-04-28T00:43:48.685Z,3.78
2023-04-28T00:46:33.349Z,5.10
2023-04-28T00:49:00.409Z,3.72
2023-04-28T00:51:29.825Z,4.22
2023-04-28T00:53:57.696Z,3.60
2023-04-28T00:56:27.830Z,5.50
2023-04-28T00:58:54.700Z,5.30
2023-04-28T01:01:21.565Z,3.37
2023-04-28T01:03:49.310Z,5.03
2023-04-28T01:06:18.050Z,5.17
2023-04-28T01:08:53.268Z,4.43
2023-04-28T01:11:20.852Z,5.10
2023-04-28T01:13:48.322Z,4.15
2023-04-28T01:16:15.270Z,3.83
2023-04-28T01:18:48.314Z,3.77
2023-04-28T01:21:15.230Z,5.10
2023-04-28T01:23:45.929Z,4.50
2023-04-28T01:26:13.715Z,4.00
2023-04-28T01:28:40.834Z,5.97
2023-04-28T01:31:14.760Z,6.13
2023-04-28T01:33:41.618Z,3.92
2023-04-28T01:36:09.002Z,4.07
2023-04-28T01:38:35.672Z,4.38
2023-04-28T01:41:05.106Z,4.27
2023-04-28T01:43:31.861Z,3.17
2023-04-28T01:45:58.625Z,4.47
2023-04-28T01:48:25.380Z,5.93
2023-04-28T01:50:52.140Z,4.17
2023-04-28T01:53:20.657Z,4.10
2023-04-28T01:55:47.570Z,3.10
2023-04-28T01:58:14.708Z,3.80
2023-04-28T02:00:41.453Z,5.00
2023-04-28T02:03:08.462Z,4.70
2023-04-28T02:05:35.300Z,4.43
2023-04-28T02:08:02.023Z,4.33
2023-04-28T02:10:29.192Z,5.03
2023-04-28T02:12:55.938Z,3.22
2023-04-28T02:15:22.681Z,10.53
2023-04-28T02:17:49.708Z,3.58
2023-04-28T02:20:16.761Z,4.78
2023-04-28T02:22:43.440Z,6.35
2023-04-28T02:25:10.735Z,4.18
2023-04-28T02:27:38.321Z,3.88
2023-04-28T02:30:06.689Z,3.47
2023-04-28T02:32:34.020Z,4.53
2023-04-28T02:35:00.856Z,4.63
2023-04-28T02:37:27.610Z,3.77
2023-04-28T02:39:54.347Z,3.87
2023-04-28T02:42:21.245Z,4.35
2023-04-28T02:44:48.015Z,3.37
2023-04-28T02:47:14.747Z,4.63
2023-04-28T02:49:41.511Z,4.53
2023-04-28T02:52:08.353Z,4.40
2023-04-28T02:54:36.815Z,6.43
2023-04-28T02:57:04.554Z,4.47
2023-04-28T02:59:31.371Z,4.10
2023-04-28T03:01:58.163Z,5.82
2023-04-28T03:04:25.095Z,2.87
2023-04-28T03:06:52.084Z,3.67
2023-04-28T03:09:18.853Z,4.77
2023-04-28T03:11:45.617Z,4.70
2023-04-28T03:14:15.368Z,4.00
2023-04-28T03:16:42.776Z,3.60
2023-04-28T03:19:09.542Z,5.70
2023-04-28T03:21:36.308Z,3.50
2023-04-28T03:24:06.901Z,3.80
2023-04-28T03:26:33.954Z,4.10
2023-04-28T03:29:00.666Z,3.47
2023-04-28T03:31:27.424Z,5.30
2023-04-28T03:33:54.299Z,5.20
2023-04-28T03:36:21.111Z,3.75
2023-04-28T03:38:48.162Z,5.17
2023-04-28T03:41:14.938Z,3.57
2023-04-28T03:43:41.763Z,4.70
2023-04-28T03:46:08.645Z,4.13
2023-04-28T03:48:35.434Z,3.63
2023-04-28T03:51:02.221Z,3.83
2023-04-28T03:53:29.437Z,4.32
2023-04-28T03:55:56.282Z,3.10
2023-04-28T03:58:23.083Z,4.07
2023-04-28T04:00:49.861Z,5.93
2023-04-28T04:03:17.498Z,4.00
2023-04-28T04:05:44.755Z,4.23
2023-04-28T04:08:12.076Z,5.87
2023-04-28T04:10:38.882Z,7.40
2023-04-28T04:13:05.626Z,6.63
2023-04-28T04:15:32.554Z,4.38
2023-04-28T04:17:59.496Z,5.97
2023-04-28T04:20:26.408Z,3.43
2023-04-28T04:22:53.151Z,4.40
2023-04-28T04:25:22.004Z,4.77
2023-04-28T04:27:50.222Z,4.93
2023-04-28T04:30:17.110Z,4.03
2023-04-28T04:32:43.841Z,6.00
2023-04-28T04:35:11.331Z,3.73
2023-04-28T04:37:38.522Z,4.73
2023-04-28T04:40:06.449Z,5.23
2023-04-28T04:42:33.325Z,6.13
2023-04-28T04:45:00.054Z,4.50
2023-04-28T04:47:27.077Z,5.03
2023-04-28T04:49:53.887Z,6.10
2023-04-28T04:52:20.620Z,4.70
2023-04-28T04:54:47.352Z,3.80
2023-04-28T04:57:14.410Z,4.70
2023-04-28T04:59:41.244Z,4.63
2023-04-28T05:02:08.305Z,6.37
2023-04-28T05:04:35.590Z,3.80
2023-04-28T05:07:02.317Z,4.63
2023-04-28T05:09:30.520Z,5.60
2023-04-28T05:11:58.191Z,4.00
2023-04-28T05:14:24.880Z,7.17
2023-04-28T05:16:51.738Z,9.03
2023-04-28T05:19:18.993Z,5.33
2023-04-28T05:21:47.596Z,7.47
2023-04-28T05:24:15.655Z,5.70
2023-04-28T05:26:42.733Z,6.03
2023-04-28T05:29:09.518Z,6.70
2023-04-28T05:31:36.306Z,6.00
2023-04-28T05:34:03.090Z,5.07
2023-04-28T05:36:30.200Z,5.20
2023-04-28T05:38:57.086Z,6.23
2023-04-28T05:41:23.873Z,6.68
2023-04-28T05:43:53.493Z,6.57
2023-04-28T05:48:55.881Z,5.80
2023-04-28T05:51:22.686Z,5.77
2023-04-28T05:53:49.442Z,6.07
2023-04-28T05:56:17.052Z,5.87
2023-04-28T05:58:50.730Z,6.20
2023-04-28T06:01:19.019Z,8.30
2023-04-28T06:03:46.208Z,5.73
2023-04-28T06:06:13.709Z,5.57
2023-04-28T06:08:40.890Z,6.17
2023-04-28T06:11:07.698Z,6.03
2023-04-28T06:13:34.403Z,4.83
2023-04-28T06:16:01.131Z,6.47
2023-04-28T06:18:32.376Z,5.60
2023-04-28T06:20:59.211Z,6.57
2023-04-28T06:23:26.148Z,7.70
2023-04-28T06:25:53.025Z,6.38
2023-04-28T06:28:19.769Z,5.27
2023-04-28T06:30:46.498Z,6.97
2023-04-28T06:33:13.277Z,8.97
2023-04-28T06:35:40.185Z,6.00
2023-04-28T06:38:07.400Z,6.80
2023-04-28T06:40:34.165Z,7.63
2023-04-28T06:43:00.939Z,8.47
2023-04-28T06:45:30.248Z,6.75
2023-04-28T06:47:57.093Z,7.40
2023-04-28T06:50:24.923Z,8.10
2023-04-28T06:52:53.083Z,9.20
2023-04-28T06:55:19.923Z,9.05
2023-04-28T06:57:46.860Z,7.68
2023-04-28T07:00:14.419Z,8.70
2023-04-28T07:02:41.242Z,7.90
2023-04-28T07:05:08.832Z,9.13
2023-04-28T07:07:38.612Z,8.75
2023-04-28T07:10:07.938Z,8.82
2023-04-28T07:12:34.623Z,11.00
2023-04-28T07:15:01.383Z,7.70
2023-04-28T07:17:28.186Z,9.18
2023-04-28T07:19:55.007Z,9.30
2023-04-28T07:22:21.760Z,7.97
2023-04-28T07:24:48.510Z,9.20
2023-04-28T07:27:15.293Z,9.32
2023-04-28T07:29:42.128Z,11.98
2023-04-28T07:32:10.594Z,10.52
2023-04-28T07:34:37.753Z,11.68
2023-04-28T07:37:04.810Z,9.77
2023-04-28T07:39:36.668Z,9.10
2023-04-28T07:42:03.784Z,11.90
2023-04-28T07:44:31.490Z,11.15
2023-04-28T07:47:01.769Z,8.35
2023-04-28T07:49:29.772Z,8.23
2023-04-28T07:51:56.772Z,8.57
2023-04-28T07:54:24.827Z,9.55
2023-04-28T07:56:51.917Z,9.40
2023-04-28T07:59:18.762Z,10.15
2023-04-28T08:01:45.617Z,11.52
2023-04-28T08:04:12.631Z,9.10
2023-04-28T08:06:40.802Z,10.40
2023-04-28T08:09:07.656Z,11.30
2023-04-28T08:11:34.678Z,10.32
2023-04-28T08:14:03.611Z,11.60
2023-04-28T08:16:31.712Z,14.80
2023-04-28T08:18:59.570Z,9.73
2023-04-28T08:21:29.556Z,9.90
2023-04-28T08:23:56.359Z,10.18
2023-04-28T08:26:24.660Z,9.13
2023-04-28T08:28:52.009Z,11.15
2023-04-28T08:31:18.779Z,11.13
2023-04-28T08:33:48.473Z,11.77
2023-04-28T08:36:15.361Z,10.77
2023-04-28T08:38:43.090Z,11.50
2023-04-28T08:41:10.191Z,9.25
2023-04-28T08:43:37.414Z,12.32
2023-04-28T08:46:15.341Z,15.10
2023-04-28T08:48:47.359Z,10.20
2023-04-28T08:51:47.881Z,9.93
2023-04-28T08:54:26.069Z,11.45
2023-04-28T08:56:55.614Z,12.27
2023-04-28T08:59:22.738Z,10.65
2023-04-28T09:01:51.974Z,10.85
2023-04-28T09:04:21.294Z,12.70
2023-04-28T09:06:48.734Z,11.15
2023-04-28T09:09:35.702Z,11.00
2023-04-28T09:12:05.282Z,13.50
2023-04-28T09:14:35.117Z,10.90
2023-04-28T09:17:03.562Z,14.68
2023-04-28T09:19:38.182Z,11.70
2023-04-28T09:22:18.110Z,11.60
2023-04-28T09:24:55.386Z,13.02
2023-04-28T09:27:28.308Z,10.02
2023-04-28T09:29:55.434Z,12.55
2023-04-28T09:32:24.474Z,10.32
2023-04-28T09:34:57.117Z,12.90
2023-04-28T09:37:27.393Z,12.43
2023-04-28T09:39:55.402Z,10.48
2023-04-28T09:42:43.247Z,9.82
2023-04-28T09:45:16.197Z,8.65
2023-04-28T09:47:47.152Z,8.52
2023-04-28T09:50:17.503Z,7.97
2023-04-28T09:52:57.138Z,9.27
2023-04-28T09:55:28.409Z,8.57
2023-04-28T09:57:56.420Z,7.65
2023-04-28T10:00:23.824Z,8.57
2023-04-28T10:02:51.684Z,9.60
2023-04-28T10:05:21.834Z,7.57
2023-04-28T10:07:49.400Z,9.00
2023-04-28T10:10:17.003Z,8.43
2023-04-28T10:12:44.817Z,7.55
2023-04-28T10:15:13.449Z,7.97
2023-04-28T10:17:40.448Z,8.43
2023-04-28T10:20:12.475Z,8.38
2023-04-28T10:23:32.099Z,9.10
2023-04-28T10:25:59.903Z,8.98
2023-04-28T10:28:51.924Z,10.70
2023-04-28T10:31:21.369Z,8.77
2023-04-28T10:33:50.833Z,9.50
2023-04-28T10:36:54.981Z,10.20
2023-04-28T10:39:21.809Z,9.27
2023-04-28T10:41:49.077Z,8.85
2023-04-28T10:44:31.433Z,11.27
2023-04-28T10:47:07.594Z,11.27
2023-04-28T10:49:57.782Z,11.10
2023-04-28T10:52:34.971Z,9.88
2023-04-28T10:55:42.589Z,12.55
2023-04-28T10:58:27.643Z,10.23
2023-04-28T11:00:55.627Z,10.30
2023-04-28T11:03:51.712Z,11.18
2023-04-28T11:06:28.994Z,10.48
2023-04-28T11:09:04.054Z,11.48
2023-04-28T11:11:39.374Z,9.60
2023-04-28T11:14:21.465Z,8.60
2023-04-28T11:16:56.330Z,7.93
2023-04-28T11:19:26.418Z,8.50
2023-04-28T11:21:59.493Z,7.63
2023-04-28T11:24:31.121Z,8.40
2023-04-28T11:26:59.539Z,7.65
2023-04-28T11:29:40.989Z,9.93
2023-04-28T11:32:10.290Z,9.07
2023-04-28T11:34:37.807Z,6.45
2023-04-28T11:37:07.024Z,6.93
2023-04-28T11:39:35.234Z,4.95
2023-04-28T11:42:10.480Z,3.08
2023-04-28T11:44:37.965Z,3.83
2023-04-28T11:47:06.838Z,3.22
2023-04-28T11:49:46.831Z,2.03
2023-04-28T11:52:13.965Z,1.33
2023-04-28T11:54:44.387Z,2.10
2023-04-28T11:57:21.922Z,1.38
2023-04-28T11:59:51.304Z,0.98
2023-04-28T12:02:30.745Z,1.05
2023-04-28T12:05:10.220Z,2.13
2023-04-28T12:07:45.113Z,2.60
2023-04-28T12:10:20.458Z,1.92
2023-04-28T12:12:52.572Z,4.47
2023-04-28T12:15:24.711Z,3.90
2023-04-28T12:17:52.024Z,3.50
2023-04-28T12:20:37.207Z,5.13
2023-04-28T12:23:05.358Z,4.85
2023-04-28T12:25:33.969Z,4.10
2023-04-28T12:28:08.329Z,4.38
2023-04-28T12:30:40.161Z,6.22
2023-04-28T12:33:23.830Z,8.75
2023-04-28T12:35:50.727Z,4.63
2023-04-28T12:38:17.971Z,3.95
2023-04-28T12:40:44.726Z,3.70
2023-04-28T12:43:11.431Z,3.60
2023-04-28T12:45:39.018Z,3.33
2023-04-28T12:48:06.487Z,3.50
2023-04-28T12:50:33.742Z,3.42
2023-04-28T12:53:00.820Z,3.20
2023-04-28T12:55:29.281Z,3.70
2023-04-28T12:57:55.984Z,45.38
2023-04-28T13:00:25.317Z,29.73
2023-04-28T13:02:53.253Z,11.00
2023-04-28T13:05:20.285Z,4.63
2023-04-28T13:07:51.584Z,4.57
2023-04-28T13:10:19.351Z,3.20
2023-04-28T13:12:46.109Z,1.88
2023-04-28T13:15:13.018Z,1.45
2023-04-28T13:17:39.935Z,1.40
2023-04-28T13:20:10.565Z,1.70
2023-04-28T13:22:37.362Z,1.67
2023-04-28T13:25:04.755Z,1.50
2023-04-28T13:27:33.281Z,1.27
2023-04-28T13:30:00.086Z,1.30
2023-04-28T13:32:28.067Z,1.15
2023-04-28T13:34:55.002Z,1.13
2023-04-28T13:37:21.836Z,1.35
2023-04-28T13:39:48.630Z,1.00
2023-04-28T13:42:16.092Z,1.73
2023-04-28T13:44:42.935Z,1.55
2023-04-28T13:47:11.193Z,1.75
2023-04-28T13:49:39.538Z,2.00
2023-04-28T13:52:06.504Z,2.17
2023-04-28T13:54:33.196Z,2.22
2023-04-28T13:56:59.950Z,2.17
2023-04-28T13:59:26.719Z,3.45
2023-04-28T14:01:53.541Z,2.35
2023-04-28T14:04:20.371Z,2.50
2023-04-28T14:06:47.329Z,2.53
2023-04-28T14:09:14.088Z,3.05
2023-04-28T14:11:40.888Z,9.05
2023-04-28T14:14:07.576Z,6.28
2023-04-28T14:16:34.405Z,5.80
2023-04-28T14:19:01.750Z,6.00
2023-04-28T14:21:28.643Z,7.75
2023-04-28T14:23:55.465Z,5.40
2023-04-28T14:26:24.348Z,6.50
2023-04-28T14:28:51.083Z,8.05
2023-04-28T14:31:18.109Z,8.63
2023-04-28T14:33:44.912Z,8.30
2023-04-28T14:36:11.668Z,9.20
2023-04-28T14:38:40.235Z,8.52
2023-04-28T14:41:07.117Z,9.68
2023-04-28T14:43:34.929Z,10.32
2023-04-28T14:46:01.820Z,8.70
2023-04-28T14:48:28.662Z,11.30
2023-04-28T14:50:55.420Z,12.60
2023-04-28T14:53:22.393Z,13.43
2023-04-28T14:55:49.747Z,10.13
2023-04-28T14:58:16.595Z,12.57
2023-04-28T15:00:43.605Z,12.10
2023-04-28T15:03:10.425Z,81.53
2023-04-28T15:05:37.504Z,26.17
2023-04-28T15:08:04.612Z,14.55
2023-04-28T15:10:40.487Z,9.60
2023-04-28T15:13:07.608Z,11.07
2023-04-28T15:15:35.360Z,9.63
2023-04-28T15:18:03.578Z,10.32
2023-04-28T15:20:33.178Z,11.73
2023-04-28T15:23:00.564Z,9.20
2023-04-28T15:25:28.207Z,10.43
2023-04-28T15:27:55.034Z,7.60
2023-04-28T15:30:21.998Z,6.90
2023-04-28T15:32:51.894Z,8.23
2023-04-28T15:35:18.808Z,10.55
2023-04-28T15:37:47.610Z,8.32
2023-04-28T15:40:17.070Z,11.27
2023-04-28T15:42:52.180Z,9.10
2023-04-28T15:45:22.796Z,10.50
2023-04-28T15:47:50.936Z,10.85
2023-04-28T15:50:20.183Z,10.80
2023-04-28T15:52:49.796Z,9.88
2023-04-28T15:55:18.465Z,10.90
2023-04-28T15:57:48.359Z,9.77
2023-04-28T16:00:15.884Z,11.05
2023-04-28T16:02:44.476Z,14.55
2023-04-28T16:05:12.156Z,10.50
2023-04-28T16:07:40.874Z,10.95
2023-04-28T16:10:10.606Z,10.32
2023-04-28T16:12:39.017Z,10.73
2023-04-28T16:15:08.663Z,16.42
2023-04-28T16:17:38.248Z,10.73
2023-04-28T16:20:11.572Z,11.07
2023-04-28T16:22:43.134Z,9.27
2023-04-28T16:25:12.934Z,8.50
2023-04-28T16:27:40.739Z,9.75
2023-04-28T16:30:08.544Z,11.80
2023-04-28T16:32:38.804Z,9.60
2023-04-28T16:35:06.425Z,11.40
2023-04-28T16:37:33.402Z,10.13
2023-04-28T16:40:03.029Z,8.48
2023-04-28T16:42:29.737Z,7.45
2023-04-28T16:44:56.501Z,6.68
2023-04-28T16:47:23.259Z,6.65
2023-04-28T16:49:50.174Z,7.25
2023-04-28T16:52:17.145Z,5.40
2023-04-28T16:54:44.191Z,6.72
2023-04-28T16:57:10.961Z,5.85
2023-04-28T16:59:37.748Z,5.05
2023-04-28T17:02:04.938Z,5.13
2023-04-28T17:04:32.443Z,4.22
2023-04-28T17:06:59.879Z,2.47
2023-04-28T17:09:27.432Z,2.03
2023-04-28T17:11:54.934Z,2.38
2023-04-28T17:14:25.083Z,1.95
2023-04-28T17:16:57.736Z,2.08
2023-04-28T17:19:24.502Z,1.70
2023-04-28T17:21:52.726Z,1.60
2023-04-28T17:24:19.543Z,1.40
2023-04-28T17:26:48.816Z,1.60
2023-04-28T17:29:16.252Z,1.52
2023-04-28T17:31:43.284Z,2.40
2023-04-28T17:34:10.345Z,2.25
2023-04-28T17:36:37.260Z,3.13
2023-04-28T17:39:04.554Z,2.30
2023-04-28T17:41:31.820Z,4.28
2023-04-28T17:43:58.621Z,3.20
2023-04-28T17:46:26.173Z,3.75
2023-04-28T17:48:53.069Z,4.82
2023-04-28T17:51:20.909Z,5.55
2023-04-28T17:53:50.898Z,6.07
2023-04-28T17:56:17.591Z,7.05
2023-04-28T17:58:44.387Z,6.28
2023-04-28T18:01:11.545Z,7.20
2023-04-28T18:03:39.763Z,8.80
2023-04-28T18:06:08.388Z,10.25
2023-04-28T18:08:36.852Z,11.90
2023-04-28T18:11:06.586Z,9.23
2023-04-28T18:13:33.518Z,12.63
2023-04-28T18:16:01.865Z,12.52
2023-04-28T18:18:30.586Z,9.52
2023-04-28T18:20:59.649Z,12.98
2023-04-28T18:23:27.218Z,12.68
2023-04-28T18:25:53.969Z,13.50
2023-04-28T18:28:20.781Z,14.23
2023-04-28T18:30:47.630Z,13.65
2023-04-28T18:33:14.615Z,15.27
2023-04-28T18:35:41.440Z,13.35
2023-04-28T18:38:08.165Z,11.60
2023-04-28T18:40:38.527Z,14.35
2023-04-28T18:43:07.685Z,15.45
2023-04-28T18:45:41.055Z,18.42
2023-04-28T18:48:09.002Z,18.77
2023-04-28T18:50:37.045Z,17.65
2023-04-28T18:53:05.015Z,17.85
2023-04-28T18:55:34.999Z,15.57
2023-04-28T18:58:02.193Z,18.83
2023-04-28T19:00:29.452Z,17.45
2023-04-28T19:02:58.897Z,18.73
2023-04-28T19:05:26.249Z,17.55
2023-04-28T19:07:53.009Z,15.88
2023-04-28T19:10:19.737Z,15.85
2023-04-28T19:12:46.484Z,19.42
2023-04-28T19:15:13.675Z,21.75
2023-04-28T19:17:40.773Z,20.90
2023-04-28T19:20:09.420Z,22.60
2023-04-28T19:22:44.423Z,22.13
2023-04-28T19:25:11.994Z,23.55
2023-04-28T19:27:42.853Z,21.38
2023-04-28T19:30:14.463Z,24.98
2023-04-28T19:32:42.363Z,23.73
2023-04-28T19:35:09.844Z,22.80
2023-04-28T19:37:36.699Z,24.23
2023-04-28T19:40:07.306Z,26.88
2023-04-28T19:42:37.266Z,23.02
2023-04-28T19:45:06.167Z,23.90
2023-04-28T19:47:34.144Z,27.73
2023-04-28T19:50:01.479Z,24.75
2023-04-28T19:52:28.193Z,24.35
2023-04-28T19:54:55.466Z,30.23
2023-04-28T19:57:24.170Z,25.77
2023-04-28T19:59:51.146Z,28.55
2023-04-28T20:02:18.813Z,28.27
2023-04-28T20:04:46.155Z,27.50
2023-04-28T20:07:13.263Z,26.83
2023-04-28T20:09:40.074Z,30.42
2023-04-28T20:12:09.342Z,27.73
2023-04-28T20:14:37.466Z,32.38
2023-04-28T20:17:05.445Z,28.63
2023-04-28T20:19:32.363Z,37.05
2023-04-28T20:22:02.450Z,29.80
2023-04-28T20:24:29.156Z,32.72
2023-04-28T20:26:55.888Z,28.73
2023-04-28T20:29:22.814Z,28.98
2023-04-28T20:31:49.913Z,33.15
2023-04-28T20:34:17.270Z,34.38
2023-04-28T20:36:44.071Z,37.65
2023-04-28T20:39:11.670Z,36.40
2023-04-28T20:41:40.839Z,37.03
2023-04-28T20:44:08.771Z,45.10
2023-04-28T20:46:35.653Z,44.35
2023-04-28T20:49:04.319Z,44.00
2023-04-28T20:51:35.112Z,42.30
2023-04-28T20:54:03.948Z,45.20
2023-04-28T20:56:33.142Z,41.42
2023-04-28T20:58:59.884Z,42.85
2023-04-28T21:01:26.784Z,39.90
2023-04-28T21:03:53.738Z,43.63
2023-04-28T21:06:20.472Z,35.22
2023-04-28T21:08:47.267Z,33.20
2023-04-28T21:11:18.425Z,30.00
2023-04-28T21:13:45.746Z,31.50
2023-04-28T21:16:20.956Z,29.52
2023-04-28T21:18:48.903Z,33.55
2023-04-28T21:21:15.725Z,36.05
2023-04-28T21:23:42.717Z,29.35
2023-04-28T21:26:10.117Z,31.33
2023-04-28T21:28:37.442Z,29.50
2023-04-28T21:31:04.963Z,30.05
2023-04-28T21:33:34.763Z,28.20
2023-04-28T21:36:07.880Z,31.98
2023-04-28T21:38:36.713Z,29.88
2023-04-28T21:41:03.920Z,26.23
2023-04-28T21:43:30.907Z,26.85
2023-04-28T21:45:57.676Z,29.13
2023-04-28T21:48:38.723Z,27.85
2023-04-28T21:51:05.712Z,25.58
2023-04-28T21:53:32.558Z,27.33
2023-04-28T21:55:59.371Z,25.75
2023-04-28T21:58:26.181Z,29.73
2023-04-28T22:00:53.410Z,24.00
2023-04-28T22:03:21.589Z,23.52
2023-04-28T22:05:48.789Z,25.85
2023-04-28T22:08:17.048Z,23.70
2023-04-28T22:10:47.732Z,21.90
2023-04-28T22:13:15.770Z,19.10
2023-04-28T22:15:42.934Z,23.23
2023-04-28T22:18:09.711Z,18.60
2023-04-28T22:20:36.687Z,17.25
2023-04-28T22:23:03.584Z,18.25
2023-04-28T22:25:30.446Z,18.23
2023-04-28T22:27:58.433Z,17.27
2023-04-28T22:30:26.189Z,17.70
2023-04-28T22:32:53.373Z,17.17
2023-04-28T22:35:20.214Z,18.87
2023-04-28T22:37:46.976Z,15.65
2023-04-28T22:40:13.902Z,14.45
2023-04-28T22:42:42.342Z,13.05
2023-04-28T22:45:11.772Z,15.32
2023-04-28T22:47:43.356Z,15.77
2023-04-28T22:50:11.220Z,16.43
2023-04-28T22:52:38.114Z,13.93
2023-04-28T22:55:06.403Z,15.63
2023-04-28T22:57:33.385Z,16.50
2023-04-28T23:00:00.338Z,13.70
2023-04-28T23:02:27.333Z,13.60
2023-04-28T23:04:56.283Z,14.40
2023-04-28T23:07:23.218Z,14.57
2023-04-28T23:09:50.137Z,13.50
2023-04-28T23:12:17.235Z,16.40
2023-04-28T23:14:43.983Z,18.93
2023-04-28T23:17:10.801Z,18.20
2023-04-28T23:19:39.023Z,19.35
2023-04-28T23:22:08.147Z,17.67
2023-04-28T23:24:37.231Z,20.63
2023-04-28T23:27:04.510Z,18.23
2023-04-28T23:29:31.810Z,19.77
2023-04-28T23:31:58.725Z,23.40
2023-04-28T23:34:25.726Z,22.73
2023-04-28T23:36:52.485Z,23.80
2023-04-28T23:39:19.189Z,26.10
2023-04-28T23:41:46.079Z,25.07
2023-04-28T23:44:12.912Z,25.00
2023-04-28T23:46:39.748Z,24.47
2023-04-28T23:49:06.674Z,30.90
2023-04-28T23:51:33.490Z,29.80
2023-04-28T23:54:01.505Z,30.70
2023-04-28T23:56:28.501Z,26.80
2023-04-28T23:58:55.294Z,29.33
